Time;durP1;ratioP1;P1;durP2;ratioP2;P2;SDS_P1;SDS_P2;PMS_P1;PMS_P2;Temp;Humidity;BMP_temperature;BMP_pressure;BME280_temperature;BME280_humidity;BME280_pressure;Samples;Min_cycle;Max_cycle;Signal;HPM_P1;HPM_P2
2021/12/04 00:00:27;;;;;;;28.67;20.40;;;4.50;99.90;;;;;;5133797;27;20072;-55
2021/12/04 00:02:53;;;;;;;27.17;19.23;;;4.50;99.90;;;;;;5133705;27;20035;-56
2021/12/04 00:05:21;;;;;;;32.08;20.38;;;4.50;99.90;;;;;;5133239;27;20039;-56
2021/12/04 00:07:47;;;;;;;30.00;20.17;;;4.50;99.90;;;;;;5133474;27;20039;-56
2021/12/04 00:10:27;;;;;;;33.27;22.53;;;4.50;99.90;;;;;;5133697;27;20031;-55
2021/12/04 00:12:52;;;;;;;32.42;21.75;;;4.50;99.90;;;;;;5133805;27;20042;-55
2021/12/04 00:15:18;;;;;;;32.50;19.53;;;4.40;99.90;;;;;;5132500;27;20039;-55
2021/12/04 00:17:44;;;;;;;30.07;20.87;;;4.50;99.90;;;;;;5133342;27;20039;-55
2021/12/04 00:20:10;;;;;;;29.87;20.50;;;4.50;99.90;;;;;;5133619;27;20043;-55
2021/12/04 00:22:37;;;;;;;28.48;20.50;;;4.40;99.90;;;;;;5133471;27;20344;-56
2021/12/04 00:25:05;;;;;;;28.42;20.58;;;4.40;99.90;;;;;;5133190;27;20039;-56
2021/12/04 00:27:30;;;;;;;26.05;19.55;;;4.40;99.90;;;;;;5132987;27;20152;-55
2021/12/04 00:29:58;;;;;;;26.20;18.40;;;4.50;99.90;;;;;;5132791;27;20395;-56
2021/12/04 00:32:33;;;;;;;25.77;18.40;;;4.40;99.90;;;;;;5133012;27;20046;-55
2021/12/04 00:35:18;;;;;;;26.05;19.40;;;4.40;99.90;;;;;;5132352;27;20407;-56
2021/12/04 00:43:21;;;;;;;22.73;17.17;;;4.50;99.90;;;;;;5132737;27;20047;-55
2021/12/04 00:51:16;;;;;;;20.98;15.93;;;4.50;99.90;;;;;;5125697;27;20039;-56
2021/12/04 00:53:41;;;;;;;19.98;15.52;;;4.50;99.90;;;;;;5113294;27;20551;-56
2021/12/04 00:56:07;;;;;;;19.55;15.35;;;4.50;99.90;;;;;;5132544;27;20193;-56
2021/12/04 00:58:33;;;;;;;23.97;16.93;;;4.50;99.90;;;;;;5132068;27;20424;-56
2021/12/04 01:00:59;;;;;;;16.43;14.63;;;4.50;99.90;;;;;;5132936;27;20352;-55
2021/12/04 01:03:25;;;;;;;19.52;15.95;;;4.50;99.90;;;;;;5130851;27;20039;-56
2021/12/04 01:05:51;;;;;;;20.70;15.63;;;4.50;99.90;;;;;;5132962;27;20045;-55
2021/12/04 01:08:17;;;;;;;16.13;14.23;;;4.50;99.90;;;;;;5131917;27;20119;-55
2021/12/04 01:10:43;;;;;;;17.70;14.40;;;4.50;99.90;;;;;;5132779;27;20487;-55
2021/12/04 01:13:11;;;;;;;16.83;14.55;;;4.50;99.90;;;;;;5132175;27;20031;-53
2021/12/04 01:15:39;;;;;;;16.20;13.57;;;4.50;99.90;;;;;;5132378;27;20407;-53
2021/12/04 01:18:05;;;;;;;15.75;13.23;;;4.50;99.90;;;;;;5131915;27;20039;-56
2021/12/04 01:20:30;;;;;;;21.07;14.20;;;4.50;99.90;;;;;;5132520;27;20411;-55
2021/12/04 01:22:56;;;;;;;16.57;13.87;;;4.50;99.90;;;;;;5132457;27;20117;-56
2021/12/04 01:25:21;;;;;;;17.10;13.87;;;4.50;99.90;;;;;;5131888;27;20066;-54
2021/12/04 01:27:47;;;;;;;16.40;14.07;;;4.50;99.90;;;;;;5131730;27;20107;-57
2021/12/04 01:30:13;;;;;;;15.43;13.13;;;4.50;99.90;;;;;;5131763;27;20039;-54
2021/12/04 01:32:39;;;;;;;12.87;11.20;;;4.50;99.90;;;;;;5132348;27;20038;-55
2021/12/04 01:35:05;;;;;;;13.85;12.07;;;4.50;99.90;;;;;;5131428;27;20277;-55
2021/12/04 01:37:30;;;;;;;11.98;10.77;;;4.50;99.90;;;;;;5131801;27;20047;-56
2021/12/04 01:39:56;;;;;;;14.80;12.27;;;4.50;99.90;;;;;;5131550;27;20051;-56
2021/12/04 01:42:22;;;;;;;12.33;11.13;;;4.50;99.90;;;;;;5132028;27;20377;-56
2021/12/04 01:44:49;;;;;;;11.48;10.20;;;4.50;99.90;;;;;;5130926;27;20512;-56
2021/12/04 01:47:20;;;;;;;12.05;10.80;;;4.50;99.90;;;;;;5132204;27;20050;-55
2021/12/04 01:49:48;;;;;;;11.25;10.18;;;4.50;99.90;;;;;;5131493;27;20442;-56
2021/12/04 01:52:15;;;;;;;11.70;9.80;;;4.50;99.90;;;;;;5132265;27;20369;-56
2021/12/04 01:54:40;;;;;;;;;;;4.50;99.90;;;;;;5131483;27;20577;-56
2021/12/04 01:57:06;;;;;;;11.02;9.82;;;4.50;99.90;;;;;;5131700;27;19915;-55
2021/12/04 01:59:32;;;;;;;11.17;9.97;;;4.50;99.90;;;;;;5130426;27;20042;-56
2021/12/04 02:01:57;;;;;;;11.20;10.10;;;4.50;99.90;;;;;;5131217;27;20118;-56
2021/12/04 02:04:24;;;;;;;11.07;9.98;;;4.50;99.90;;;;;;5130619;27;20507;-56
2021/12/04 02:06:49;;;;;;;11.90;10.00;;;4.50;99.90;;;;;;5112301;27;20063;-55
2021/12/04 02:09:15;;;;;;;10.77;9.60;;;4.50;99.90;;;;;;5130874;27;20039;-55
2021/12/04 02:11:41;;;;;;;12.45;10.77;;;4.50;99.90;;;;;;5131648;27;20035;-56
2021/12/04 02:14:07;;;;;;;11.60;10.50;;;4.50;99.90;;;;;;5130558;27;20205;-55
2021/12/04 02:16:32;;;;;;;11.45;10.35;;;4.50;99.90;;;;;;5131796;27;20027;-56
2021/12/04 02:18:59;;;;;;;15.53;10.97;;;4.50;99.90;;;;;;5131084;27;20034;-56
2021/12/04 02:21:26;;;;;;;12.50;11.23;;;4.50;99.90;;;;;;5131518;27;20268;-56
2021/12/04 02:23:53;;;;;;;12.63;11.32;;;4.50;99.90;;;;;;5130747;27;20041;-56
2021/12/04 02:26:18;;;;;;;11.38;10.07;;;4.50;99.90;;;;;;5131285;27;20510;-56
2021/12/04 02:28:46;;;;;;;11.27;10.17;;;4.50;99.90;;;;;;5130303;27;20032;-56
2021/12/04 02:31:12;;;;;;;10.50;9.50;;;4.50;99.90;;;;;;5131392;27;20749;-56
2021/12/04 02:33:38;;;;;;;10.65;9.65;;;4.40;99.90;;;;;;5130608;27;20060;-55
2021/12/04 02:36:06;;;;;;;10.27;9.07;;;4.40;99.90;;;;;;5131296;27;20041;-56
2021/12/04 02:38:33;;;;;;;11.07;9.98;;;4.40;99.90;;;;;;5112071;28;20042;-55
2021/12/04 02:41:00;;;;;;;9.63;8.73;;;4.40;99.90;;;;;;5113033;28;20047;-56
2021/12/04 02:43:27;;;;;;;10.13;9.20;;;4.40;99.90;;;;;;5130353;28;20095;-56
2021/12/04 02:45:53;;;;;;;10.93;9.88;;;4.40;99.90;;;;;;5131385;28;20046;-56
2021/12/04 02:48:19;;;;;;;11.68;9.70;;;4.40;99.90;;;;;;5130353;28;20035;-55
2021/12/04 02:50:46;;;;;;;9.32;8.50;;;4.40;99.90;;;;;;5131104;28;20040;-56
2021/12/04 02:53:12;;;;;;;9.07;8.18;;;4.40;99.90;;;;;;5130136;28;20492;-56
2021/12/04 02:55:37;;;;;;;9.77;8.87;;;4.40;99.90;;;;;;5130838;28;20156;-56
2021/12/04 02:58:03;;;;;;;10.37;9.13;;;4.40;99.90;;;;;;5130126;28;20396;-55
2021/12/04 03:00:29;;;;;;;9.48;8.45;;;4.40;99.90;;;;;;5130981;28;20042;-55
2021/12/04 03:02:56;;;;;;;9.80;8.90;;;4.40;99.90;;;;;;5131027;27;20037;-55
2021/12/04 03:05:25;;;;;;;10.40;9.40;;;4.40;99.90;;;;;;5130263;28;20135;-54
2021/12/04 03:07:53;;;;;;;9.07;8.27;;;4.40;99.90;;;;;;5129965;28;20123;-55
2021/12/04 03:10:19;;;;;;;9.82;8.82;;;4.40;99.90;;;;;;5130085;28;20049;-55
2021/12/04 03:12:45;;;;;;;12.23;8.88;;;4.40;99.90;;;;;;5130350;28;20061;-56
2021/12/04 03:15:11;;;;;;;12.00;9.10;;;4.40;99.90;;;;;;5130004;28;20472;-55
2021/12/04 03:17:36;;;;;;;9.77;8.77;;;4.40;99.90;;;;;;5130463;28;20572;-56
2021/12/04 03:20:04;;;;;;;9.53;8.63;;;4.40;99.90;;;;;;5130330;28;20269;-54
2021/12/04 03:22:30;;;;;;;9.32;8.43;;;4.40;99.90;;;;;;5130753;28;20118;-56
2021/12/04 03:24:56;;;;;;;10.13;9.13;;;4.30;99.90;;;;;;5129759;27;20469;-55
2021/12/04 03:27:24;;;;;;;9.07;8.02;;;4.40;99.90;;;;;;5133846;27;20047;-56
2021/12/04 03:29:58;;;;;;;9.07;8.25;;;4.40;99.90;;;;;;5134056;27;20190;-55
2021/12/04 03:43:10;;;;;;;10.35;9.32;;;4.40;99.90;;;;;;5134048;27;20047;-54
2021/12/04 03:45:38;;;;;;;12.10;10.00;;;4.40;99.90;;;;;;5133445;27;20095;-56
2021/12/04 03:48:11;;;;;;;11.18;10.07;;;4.30;99.90;;;;;;5132820;27;20043;-55
2021/12/04 03:50:37;;;;;;;9.65;8.65;;;4.30;99.90;;;;;;5134488;27;20106;-56
2021/12/04 03:53:04;;;;;;;12.43;10.40;;;4.40;99.90;;;;;;5134215;27;20491;-55
2021/12/04 03:55:29;;;;;;;;;;;4.30;99.90;;;;;;5134756;27;20035;-55
2021/12/04 03:57:55;;;;;;;10.63;9.43;;;4.40;99.90;;;;;;5133393;27;19926;-55
2021/12/04 04:00:23;;;;;;;11.50;8.80;;;4.40;99.90;;;;;;5133926;27;20035;-55
2021/12/04 04:02:48;;;;;;;10.65;9.38;;;4.40;99.90;;;;;;5134030;27;20041;-56
2021/12/04 04:05:14;;;;;;;10.60;9.50;;;4.30;99.90;;;;;;5133597;27;20113;-55
2021/12/04 04:07:40;;;;;;;9.73;8.83;;;4.30;99.90;;;;;;5133815;27;20499;-56
2021/12/04 04:10:06;;;;;;;12.77;9.43;;;4.40;99.90;;;;;;5133614;27;20027;-56
2021/12/04 04:12:32;;;;;;;10.10;9.10;;;4.40;99.90;;;;;;5133522;27;20121;-54
2021/12/04 04:14:58;;;;;;;12.18;9.32;;;4.40;99.90;;;;;;5132825;27;20118;-56
2021/12/04 04:17:26;;;;;;;11.43;10.03;;;4.40;99.90;;;;;;5132811;27;20031;-54
2021/12/04 04:19:51;;;;;;;12.57;10.50;;;4.40;99.90;;;;;;5132727;27;20296;-54
2021/12/04 04:22:17;;;;;;;9.50;8.60;;;4.40;99.90;;;;;;5133332;27;20110;-56
2021/12/04 04:24:42;;;;;;;10.33;9.23;;;4.40;99.90;;;;;;5132327;27;20061;-56
2021/12/04 04:27:08;;;;;;;11.97;10.20;;;4.40;99.90;;;;;;5133047;27;20035;-55
2021/12/04 04:29:33;;;;;;;10.30;9.03;;;4.40;99.90;;;;;;5132379;27;20506;-56
2021/12/04 04:32:00;;;;;;;9.43;8.53;;;4.40;99.90;;;;;;5133539;27;20115;-56
2021/12/04 04:34:30;;;;;;;9.75;8.73;;;4.40;99.90;;;;;;5132630;27;20070;-55
2021/12/04 05:12:51;;;;;;;10.57;9.23;;;4.40;99.90;;;;;;5132653;27;20047;-54
2021/12/04 05:15:34;;;;;;;12.32;10.63;;;4.40;99.90;;;;;;5131253;27;20122;-56
2021/12/04 05:18:10;;;;;;;10.85;9.75;;;4.40;99.90;;;;;;5132013;27;20426;-54
2021/12/04 05:20:38;;;;;;;14.75;10.70;;;4.40;99.90;;;;;;5132501;27;20115;-56
2021/12/04 05:23:07;;;;;;;10.93;9.57;;;4.40;99.90;;;;;;5132021;27;20118;-54
2021/12/04 05:25:35;;;;;;;11.57;10.38;;;4.40;99.90;;;;;;5132178;27;20084;-55
2021/12/04 05:28:02;;;;;;;12.48;10.48;;;4.40;99.90;;;;;;5131381;27;20086;-55
2021/12/04 05:30:28;;;;;;;15.25;11.38;;;4.40;99.90;;;;;;5132171;27;20271;-56
2021/12/04 05:32:53;;;;;;;11.80;10.27;;;4.40;99.90;;;;;;5132332;27;20046;-54
2021/12/04 05:35:20;;;;;;;13.07;11.67;;;4.40;99.90;;;;;;5130611;27;20280;-54
2021/12/04 05:37:46;;;;;;;12.75;10.80;;;4.40;99.90;;;;;;5123067;27;20035;-56
2021/12/04 05:40:13;;;;;;;14.55;11.30;;;4.40;99.90;;;;;;5113493;27;20186;-56
2021/12/04 05:42:39;;;;;;;13.55;10.60;;;4.40;99.90;;;;;;5131966;27;20039;-55
2021/12/04 05:45:08;;;;;;;16.17;11.93;;;4.40;99.90;;;;;;5113017;27;20498;-56
2021/12/04 05:47:43;;;;;;;13.30;11.80;;;4.40;99.90;;;;;;5131618;27;20050;-55
2021/12/04 05:55:22;;;;;;;16.02;12.00;;;4.40;99.90;;;;;;5078920;27;20833;-55
2021/12/04 05:57:47;;;;;;;15.80;12.38;;;4.40;99.90;;;;;;5131178;27;20455;-56
2021/12/04 06:00:19;;;;;;;15.27;12.63;;;4.30;99.90;;;;;;5131931;27;20081;-56
2021/12/04 06:02:45;;;;;;;18.25;13.95;;;4.30;99.90;;;;;;5131518;27;20039;-55
2021/12/04 06:05:12;;;;;;;18.08;13.43;;;4.30;99.90;;;;;;5130896;27;20043;-56
2021/12/04 06:07:38;;;;;;;;;;;4.30;99.90;;;;;;5131687;27;20043;-56
2021/12/04 06:10:04;;;;;;;18.10;12.95;;;4.30;99.90;;;;;;5131398;27;19971;-55
2021/12/04 06:12:30;;;;;;;17.65;13.70;;;4.40;99.90;;;;;;5131700;27;20039;-56
2021/12/04 06:14:55;;;;;;;18.95;13.85;;;4.30;99.90;;;;;;5112371;27;20035;-56
2021/12/04 06:17:23;;;;;;;18.07;14.43;;;4.30;99.90;;;;;;5131368;27;20114;-55
2021/12/04 06:22:42;;;;;;;18.17;13.55;;;4.30;99.90;;;;;;5131637;27;20043;-56
2021/12/04 06:25:24;;;;;;;21.15;14.30;;;4.40;99.90;;;;;;5130648;27;20091;-55
2021/12/04 06:27:50;;;;;;;17.88;14.02;;;4.40;99.90;;;;;;5130764;27;20162;-55
2021/12/04 06:30:18;;;;;;;20.48;15.85;;;4.30;99.90;;;;;;5130748;27;20046;-56
2021/12/04 06:32:46;;;;;;;20.20;15.80;;;4.40;99.90;;;;;;5131254;27;20039;-54
2021/12/04 06:35:12;;;;;;;21.15;16.02;;;4.40;99.90;;;;;;5130217;27;20038;-55
2021/12/04 06:37:39;;;;;;;17.90;13.73;;;4.40;99.90;;;;;;5130219;28;20047;-56
2021/12/04 06:40:06;;;;;;;19.60;14.10;;;4.40;99.90;;;;;;5130711;28;20027;-56
2021/12/04 06:42:31;;;;;;;19.30;14.68;;;4.40;99.90;;;;;;5131087;27;20084;-56
2021/12/04 06:44:57;;;;;;;19.00;14.77;;;4.40;99.90;;;;;;5130062;28;20043;-56
2021/12/04 06:47:24;;;;;;;24.07;15.53;;;4.40;99.90;;;;;;5131324;28;20099;-53
2021/12/04 06:49:53;;;;;;;18.98;15.93;;;4.40;99.90;;;;;;5112651;28;20047;-56
2021/12/04 06:52:26;;;;;;;22.35;14.95;;;4.40;99.90;;;;;;5131587;28;20039;-56
2021/12/04 06:54:57;;;;;;;20.48;15.48;;;4.40;99.90;;;;;;5130789;28;20480;-55
2021/12/04 06:57:23;;;;;;;22.13;15.93;;;4.40;99.90;;;;;;5130739;28;20050;-55
2021/12/04 06:59:52;;;;;;;21.13;15.43;;;4.40;99.90;;;;;;5130682;27;20412;-55
2021/12/04 07:02:18;;;;;;;21.80;14.75;;;4.40;99.90;;;;;;5134022;27;20046;-56
2021/12/04 07:04:43;;;;;;;20.48;14.82;;;4.40;99.90;;;;;;5130253;27;20031;-53
2021/12/04 07:07:10;;;;;;;24.43;16.17;;;4.40;99.90;;;;;;5116443;27;20069;-55
2021/12/04 07:09:37;;;;;;;22.25;15.60;;;4.40;99.90;;;;;;5134048;27;20038;-53
2021/12/04 07:12:04;;;;;;;23.92;15.25;;;4.40;99.90;;;;;;5134394;27;20070;-55
2021/12/04 07:14:31;;;;;;;25.90;17.58;;;4.40;99.90;;;;;;5133400;27;20031;-56
2021/12/04 07:17:01;;;;;;;22.75;15.98;;;4.40;99.90;;;;;;5133920;27;20088;-55
2021/12/04 07:19:26;;;;;;;25.95;16.23;;;4.40;99.90;;;;;;5133398;27;20073;-55
2021/12/04 07:21:52;;;;;;;24.63;16.20;;;4.40;99.90;;;;;;5134206;27;20067;-53
2021/12/04 07:24:18;;;;;;;26.47;16.30;;;4.40;99.90;;;;;;5133837;27;20072;-56
2021/12/04 07:26:43;;;;;;;29.45;17.48;;;4.40;99.90;;;;;;5134664;27;20042;-56
2021/12/04 07:29:09;;;;;;;22.52;15.57;;;4.40;99.90;;;;;;5134174;27;20043;-56
2021/12/04 07:31:37;;;;;;;33.35;18.42;;;4.50;99.90;;;;;;5134735;27;20092;-56
2021/12/04 07:34:03;;;;;;;31.00;17.52;;;4.50;99.90;;;;;;5133782;27;20050;-56
2021/12/04 07:36:29;;;;;;;30.33;17.90;;;4.50;99.90;;;;;;5133931;27;20031;-56
2021/12/04 07:38:56;;;;;;;32.78;17.65;;;4.50;99.90;;;;;;5133485;27;20043;-56
2021/12/04 07:41:22;;;;;;;33.42;18.02;;;4.50;99.90;;;;;;5134660;27;20039;-56
2021/12/04 07:43:48;;;;;;;28.08;18.02;;;4.50;99.90;;;;;;5133638;27;20091;-55
2021/12/04 07:46:14;;;;;;;30.23;17.73;;;4.50;99.90;;;;;;5134338;27;20472;-56
2021/12/04 07:48:40;;;;;;;39.25;19.70;;;4.50;99.90;;;;;;5132260;27;20062;-55
2021/12/04 07:51:06;;;;;;;34.88;19.42;;;4.50;99.90;;;;;;5132499;27;20062;-56
2021/12/04 07:53:32;;;;;;;36.00;19.13;;;4.50;99.90;;;;;;5132918;27;20038;-55
2021/12/04 07:55:58;;;;;;;26.48;15.23;;;4.50;99.90;;;;;;5134306;27;20038;-56
2021/12/04 07:58:24;;;;;;;29.17;15.52;;;4.50;99.90;;;;;;5132776;27;20046;-56
2021/12/04 08:00:50;;;;;;;30.08;15.38;;;4.50;99.90;;;;;;5133231;27;20531;-56
2021/12/04 08:03:16;;;;;;;28.67;16.55;;;4.50;99.90;;;;;;5132031;27;20555;-55
2021/12/04 08:05:43;;;;;;;32.60;18.33;;;4.60;99.90;;;;;;5133523;27;20039;-55
2021/12/04 08:08:09;;;;;;;27.27;16.95;;;4.50;99.90;;;;;;5131683;27;20793;-56
2021/12/04 08:10:34;;;;;;;30.33;16.77;;;4.50;99.90;;;;;;5133436;27;20535;-56
2021/12/04 08:13:02;;;;;;;30.02;17.58;;;4.50;99.90;;;;;;5132129;27;20114;-57
2021/12/04 08:15:30;;;;;;;34.78;18.70;;;4.50;99.90;;;;;;5133117;27;20042;-56
2021/12/04 08:17:55;;;;;;;38.42;18.92;;;4.60;99.90;;;;;;5114052;27;20092;-56
2021/12/04 08:20:21;;;;;;;37.93;19.50;;;4.60;99.90;;;;;;5132935;27;20043;-56
2021/12/04 08:22:47;;;;;;;35.50;18.73;;;4.60;99.90;;;;;;5133061;27;20043;-56
2021/12/04 08:25:16;;;;;;;41.97;18.98;;;4.60;99.90;;;;;;5132560;27;20407;-57
2021/12/04 08:27:42;;;;;;;33.90;17.20;;;4.50;99.90;;;;;;5132599;27;20046;-55
2021/12/04 08:30:11;;;;;;;37.67;19.30;;;4.60;99.90;;;;;;5132848;27;20039;-56
2021/12/04 08:32:38;;;;;;;45.67;20.17;;;4.60;99.90;;;;;;5132955;27;20066;-54
2021/12/04 08:35:05;;;;;;;45.17;20.60;;;4.60;99.90;;;;;;5113889;27;20543;-55
2021/12/04 08:37:31;;;;;;;43.80;19.63;;;4.60;99.90;;;;;;5132283;27;20043;-54
2021/12/04 08:39:57;;;;;;;39.20;19.13;;;4.60;99.90;;;;;;5132670;27;20046;-55
2021/12/04 08:42:24;;;;;;;41.73;18.57;;;4.60;99.90;;;;;;5132277;27;20042;-55
2021/12/04 08:44:50;;;;;;;44.40;20.33;;;4.60;99.90;;;;;;5132012;27;20542;-54
2021/12/04 08:47:15;;;;;;;37.00;18.47;;;4.60;99.90;;;;;;5120219;27;20122;-54
2021/12/04 08:49:43;;;;;;;40.33;19.77;;;4.60;99.90;;;;;;5131965;27;20132;-52
2021/12/04 08:52:09;;;;;;;41.78;20.13;;;4.60;99.90;;;;;;5132153;27;20043;-55
2021/12/04 08:54:36;;;;;;;41.40;18.90;;;4.60;99.90;;;;;;5131905;27;20422;-55
2021/12/04 08:57:01;;;;;;;;;;;4.60;99.90;;;;;;5132742;27;20069;-53
2021/12/04 08:59:27;;;;;;;46.20;20.98;;;4.60;99.90;;;;;;5132385;27;20420;-54
2021/12/04 09:01:53;;;;;;;41.50;18.63;;;4.60;99.90;;;;;;5132018;27;20461;-53
2021/12/04 09:04:23;;;;;;;46.58;19.40;;;4.70;99.90;;;;;;5131682;27;20043;-54
2021/12/04 09:06:51;;;;;;;46.63;21.33;;;4.70;99.90;;;;;;5131747;27;20105;-55
2021/12/04 09:09:17;;;;;;;48.70;21.00;;;4.70;99.90;;;;;;5123773;27;20420;-55
2021/12/04 09:11:48;;;;;;;47.28;22.05;;;4.70;99.90;;;;;;5130600;27;20031;-56
2021/12/04 09:14:16;;;;;;;48.72;20.38;;;4.70;99.90;;;;;;5130535;27;20085;-55
2021/12/04 09:16:42;;;;;;;54.70;22.52;;;4.70;99.90;;;;;;5132095;27;20031;-54
2021/12/04 09:19:08;;;;;;;49.17;22.63;;;4.70;99.90;;;;;;5130506;27;20679;-54
2021/12/04 09:21:36;;;;;;;52.55;22.05;;;4.70;99.90;;;;;;5131886;27;20442;-55
2021/12/04 09:24:13;;;;;;;53.58;21.70;;;4.70;99.90;;;;;;5129862;27;20088;-55
2021/12/04 10:01:59;;;;;;;72.75;27.85;;;4.80;99.90;;;;;;5131142;27;20039;-53
2021/12/04 10:04:54;;;;;;;61.47;24.95;;;4.80;99.90;;;;;;5130485;27;20039;-52
2021/12/04 10:13:12;;;;;;;63.47;25.67;;;4.90;99.90;;;;;;5128654;27;20043;-52
2021/12/04 10:35:16;;;;;;;55.28;24.95;;;5.10;99.90;;;;;;5130047;27;20043;-53
2021/12/04 10:38:01;;;;;;;51.88;25.98;;;5.10;99.90;;;;;;5129881;27;20403;-51
2021/12/04 10:40:45;;;;;;;58.72;27.35;;;5.10;99.90;;;;;;5112212;28;20071;-51
2021/12/04 10:43:18;;;;;;;56.10;25.13;;;5.10;99.90;;;;;;5129672;28;20450;-54
2021/12/04 10:45:49;;;;;;;51.60;27.10;;;5.10;99.90;;;;;;5121370;28;20132;-50
2021/12/04 10:48:19;;;;;;;52.83;24.40;;;5.10;99.90;;;;;;5128767;28;20032;-50
2021/12/04 10:51:08;;;;;;;52.40;25.98;;;5.10;99.90;;;;;;5129920;28;20035;-50
2021/12/04 10:53:45;;;;;;;62.28;27.85;;;5.10;99.90;;;;;;5127330;28;20054;-48
2021/12/04 10:56:25;;;;;;;61.35;29.23;;;5.10;99.90;;;;;;5130600;28;20568;-52
2021/12/04 11:04:26;;;;;;;58.53;26.35;;;5.10;99.90;;;;;;5125160;28;20415;-51
2021/12/04 11:07:23;;;;;;;59.25;27.05;;;5.20;99.90;;;;;;5130366;28;20164;-53
2021/12/04 11:18:42;;;;;;;68.53;31.75;;;5.20;99.90;;;;;;5121389;28;20504;-50
2021/12/04 11:21:35;;;;;;;71.70;32.30;;;5.10;99.90;;;;;;5130365;28;20139;-48
2021/12/04 11:24:25;;;;;;;71.25;31.63;;;5.10;99.90;;;;;;5129237;28;20035;-50
2021/12/04 11:43:01;;;;;;;95.93;38.10;;;5.10;99.90;;;;;;5129698;28;20071;-52
2021/12/04 11:48:37;;;;;;;90.47;36.38;;;5.10;99.90;;;;;;5120909;27;20039;-49
2021/12/04 11:51:10;;;;;;;80.70;34.30;;;5.10;99.90;;;;;;5133553;27;20278;-50
2021/12/04 11:53:35;;;;;;;82.35;35.53;;;5.10;99.90;;;;;;5132543;27;20039;-50
2021/12/04 11:56:02;;;;;;;89.70;38.27;;;5.10;99.90;;;;;;5134208;27;20035;-49
2021/12/04 11:58:31;;;;;;;89.93;37.42;;;5.20;99.90;;;;;;5132331;27;20035;-51
2021/12/04 12:01:00;;;;;;;93.82;36.58;;;5.20;99.90;;;;;;5125455;27;20054;-53
2021/12/04 12:03:29;;;;;;;80.55;34.60;;;5.30;99.90;;;;;;5131759;27;20050;-53
2021/12/04 12:06:04;;;;;;;76.78;34.63;;;5.30;99.90;;;;;;5133841;27;20130;-54
2021/12/04 12:08:37;;;;;;;85.85;33.13;;;5.30;99.90;;;;;;5132196;27;20039;-54
2021/12/04 12:11:20;;;;;;;80.82;32.45;;;5.30;99.90;;;;;;5133560;27;20054;-52
2021/12/04 12:14:09;;;;;;;70.13;32.90;;;5.40;99.90;;;;;;5132523;27;20039;-54
2021/12/04 12:16:39;;;;;;;75.20;32.20;;;5.30;99.90;;;;;;5129002;27;20416;-54
2021/12/04 12:19:14;;;;;;;82.75;32.88;;;5.30;99.90;;;;;;5132202;27;20042;-53
2021/12/04 12:21:52;;;;;;;80.20;33.03;;;5.30;99.90;;;;;;5129675;27;20130;-52
2021/12/04 12:33:28;;;;;;;90.38;37.70;;;5.20;99.90;;;;;;5132413;27;20496;-54
2021/12/04 12:36:12;;;;;;;85.80;37.03;;;5.20;99.90;;;;;;5133050;27;20039;-53
2021/12/04 12:38:51;;;;;;;92.22;36.47;;;5.20;99.90;;;;;;5122980;27;20125;-54
2021/12/04 12:41:39;;;;;;;95.88;38.88;;;5.20;99.90;;;;;;5132795;27;20064;-54
2021/12/04 12:44:30;;;;;;;87.00;36.38;;;5.20;99.90;;;;;;5132217;27;20441;-53
2021/12/04 12:47:04;;;;;;;88.72;36.42;;;5.20;99.90;;;;;;5129297;27;20168;-53
2021/12/04 12:49:37;;;;;;;97.03;42.50;;;5.20;99.90;;;;;;5131882;27;20340;-54
2021/12/04 12:52:13;;;;;;;90.25;38.42;;;5.20;99.90;;;;;;5121992;27;20042;-54
2021/12/04 12:54:41;;;;;;;105.07;42.00;;;5.10;99.90;;;;;;5131776;27;20035;-54
2021/12/04 12:57:21;;;;;;;91.50;39.90;;;5.20;99.90;;;;;;5132590;27;20302;-54
2021/12/04 13:13:55;;;;;;;83.85;38.92;;;5.20;99.90;;;;;;5131582;27;20039;-51
2021/12/04 13:16:30;;;;;;;84.63;37.13;;;5.20;99.90;;;;;;5132666;27;20039;-52
2021/12/04 13:19:00;;;;;;;82.28;35.38;;;5.20;99.90;;;;;;5131144;27;20507;-55
2021/12/04 13:21:27;;;;;;;92.25;38.90;;;5.20;99.90;;;;;;5131625;27;20055;-54
2021/12/04 13:23:55;;;;;;;88.72;38.67;;;5.20;99.90;;;;;;5130416;27;20031;-53
2021/12/04 13:26:32;;;;;;;87.63;36.63;;;5.20;99.90;;;;;;5128569;27;21174;-53
2021/12/04 13:29:00;;;;;;;83.35;36.10;;;5.20;99.90;;;;;;5130510;27;20047;-53
2021/12/04 13:31:27;;;;;;;93.88;37.65;;;5.20;99.90;;;;;;5132251;27;20507;-52
2021/12/04 13:33:54;;;;;;;85.05;37.67;;;5.30;99.90;;;;;;5131481;27;20038;-48
2021/12/04 13:36:23;;;;;;;82.70;36.22;;;5.30;99.90;;;;;;5132200;27;20118;-49
2021/12/04 13:39:11;;;;;;;81.60;36.88;;;5.30;99.90;;;;;;5131433;27;20043;-50
2021/12/04 13:41:38;;;;;;;;;;;5.30;99.90;;;;;;5129861;27;20629;-55
2021/12/04 13:44:06;;;;;;;80.05;32.80;;;5.30;99.90;;;;;;5129591;27;19916;-53
2021/12/04 13:47:01;;;;;;;79.32;36.85;;;5.40;99.90;;;;;;5130765;27;20035;-55
2021/12/04 13:49:33;;;;;;;75.63;35.38;;;5.30;99.90;;;;;;5128418;27;20047;-52
2021/12/04 13:52:03;;;;;;;84.25;35.30;;;5.30;99.90;;;;;;5130390;27;20027;-54
2021/12/04 13:54:30;;;;;;;68.00;33.65;;;5.40;99.90;;;;;;5129967;27;20031;-55
2021/12/04 13:56:57;;;;;;;85.13;35.63;;;5.40;99.90;;;;;;5131421;27;20161;-56
2021/12/04 13:59:25;;;;;;;65.38;32.92;;;5.40;99.90;;;;;;5130490;27;20038;-56
2021/12/04 14:01:51;;;;;;;70.38;33.20;;;5.40;99.90;;;;;;5127942;27;20119;-51
2021/12/04 14:04:17;;;;;;;75.88;34.38;;;5.40;99.90;;;;;;5129710;27;20039;-54
2021/12/04 14:06:53;;;;;;;79.65;35.08;;;5.40;99.90;;;;;;5128761;27;20074;-54
2021/12/04 14:09:19;;;;;;;81.00;39.38;;;5.40;99.90;;;;;;5130508;27;20088;-54
2021/12/04 14:11:46;;;;;;;79.65;34.30;;;5.40;99.90;;;;;;5130645;27;20488;-53
2021/12/04 14:14:31;;;;;;;78.78;37.92;;;5.40;99.90;;;;;;5129890;27;20103;-54
2021/12/04 14:17:10;;;;;;;73.13;38.78;;;5.40;99.90;;;;;;5130572;27;20446;-54
2021/12/04 14:19:36;;;;;;;79.30;38.00;;;5.40;99.90;;;;;;5119310;27;20042;-53
2021/12/04 14:22:06;;;;;;;77.53;34.70;;;5.40;99.90;;;;;;5130737;27;20027;-54
2021/12/04 14:24:42;;;;;;;88.65;36.53;;;5.40;99.90;;;;;;5130704;27;20474;-55
2021/12/04 14:27:10;;;;;;;82.60;36.47;;;5.30;99.90;;;;;;5130693;27;20035;-49
2021/12/04 14:29:39;;;;;;;80.97;37.00;;;5.40;99.90;;;;;;5130427;27;20031;-49
2021/12/04 14:32:05;;;;;;;83.28;37.72;;;5.30;99.90;;;;;;5111523;28;20438;-48
2021/12/04 14:34:32;;;;;;;79.25;36.80;;;5.30;99.90;;;;;;5125140;27;20492;-49
2021/12/04 14:37:04;;;;;;;81.07;35.83;;;5.30;99.90;;;;;;5118467;28;20031;-50
2021/12/04 14:39:30;;;;;;;72.90;36.17;;;5.30;99.90;;;;;;5130375;27;20031;-51
2021/12/04 14:41:56;;;;;;;82.53;35.22;;;5.30;99.90;;;;;;5130600;27;20031;-52
2021/12/04 14:44:22;;;;;;;71.27;32.70;;;5.30;99.90;;;;;;5130502;28;20484;-52
2021/12/04 14:46:48;;;;;;;74.03;34.65;;;5.30;99.90;;;;;;5111250;28;20091;-52
2021/12/04 14:49:14;;;;;;;66.03;33.05;;;5.30;99.90;;;;;;5129830;28;20079;-52
2021/12/04 14:51:40;;;;;;;70.32;36.88;;;5.30;99.90;;;;;;5130477;28;20548;-52
2021/12/04 14:54:06;;;;;;;74.57;34.97;;;5.30;99.90;;;;;;5126982;28;20106;-52
2021/12/04 14:56:34;;;;;;;71.88;35.97;;;5.30;99.90;;;;;;5130626;28;20488;-47
2021/12/04 14:59:00;;;;;;;60.40;32.42;;;5.30;99.90;;;;;;5129850;28;20070;-47
2021/12/04 15:01:32;;;;;;;71.70;34.83;;;5.30;99.90;;;;;;5130711;28;20043;-48
2021/12/04 15:04:02;;;;;;;65.28;33.35;;;5.30;99.90;;;;;;5129955;28;20046;-47
2021/12/04 15:06:30;;;;;;;71.78;33.45;;;5.30;99.90;;;;;;5130283;28;20031;-48
2021/12/04 15:09:11;;;;;;;62.97;33.00;;;5.30;99.90;;;;;;5129316;28;20043;-47
2021/12/04 15:11:40;;;;;;;54.97;33.15;;;5.30;99.90;;;;;;5130559;28;20503;-48
2021/12/04 15:14:13;;;;;;;64.35;32.00;;;5.30;99.90;;;;;;5129723;28;20043;-47
2021/12/04 15:16:49;;;;;;;61.28;31.60;;;5.30;99.90;;;;;;5130217;28;20038;-47
2021/12/04 15:19:34;;;;;;;59.22;32.55;;;5.30;99.90;;;;;;5129790;28;20035;-48
2021/12/04 15:22:02;;;;;;;58.80;32.28;;;5.30;99.90;;;;;;5131516;27;20070;-46
2021/12/04 15:24:34;;;;;;;64.78;33.17;;;5.30;99.90;;;;;;5133708;27;20039;-47
2021/12/04 15:27:10;;;;;;;56.90;32.00;;;5.30;99.90;;;;;;5133929;27;20521;-46
2021/12/04 15:29:38;;;;;;;60.00;30.42;;;5.30;99.90;;;;;;5132200;27;20039;-46
2021/12/04 15:32:11;;;;;;;53.92;29.98;;;5.30;99.90;;;;;;5133616;27;20027;-46
2021/12/04 15:34:53;;;;;;;55.75;30.30;;;5.30;99.90;;;;;;5133062;27;20095;-46
2021/12/04 15:37:27;;;;;;;53.40;29.52;;;5.30;99.90;;;;;;5133865;27;20092;-48
2021/12/04 15:39:53;;;;;;;54.20;28.67;;;5.30;99.90;;;;;;5133365;27;20506;-48
2021/12/04 15:42:34;;;;;;;;;;;5.30;99.90;;;;;;5133468;27;20106;-47
2021/12/04 15:47:48;;;;;;;47.10;27.90;;;5.30;99.90;;;;;;5121564;27;20566;-47
2021/12/04 15:50:45;;;;;;;47.67;29.75;;;5.30;99.90;;;;;;5133345;27;20082;-48
2021/12/04 15:53:13;;;;;;;57.72;30.27;;;5.30;99.90;;;;;;5114800;27;20413;-47
2021/12/04 15:55:52;;;;;;;50.58;28.77;;;5.30;99.90;;;;;;5134050;27;20031;-47